Time;durP1;ratioP1;P1;durP2;ratioP2;P2;SDS_P1;SDS_P2;PMS_P1;PMS_P2;Temp;Humidity;BMP_temperature;BMP_pressure;BME280_temperature;BME280_humidity;BME280_pressure;Samples;Min_cycle;Max_cycle;Signal;HPM_P1;HPM_P2
2023/04/01 00:01:26;;;;;;;19.55;6.35;;;10.20;99.90;;;;;;5097733;28;20040;-86
2023/04/01 00:03:54;;;;;;;16.63;6.05;;;10.20;99.90;;;;;;5096952;28;20052;-89
2023/04/01 00:06:23;;;;;;;17.50;6.18;;;10.10;99.90;;;;;;5098605;28;20043;-86
2023/04/01 00:08:50;;;;;;;19.70;7.30;;;10.20;99.90;;;;;;5096808;28;20394;-86
2023/04/01 00:11:16;;;;;;;16.88;6.32;;;10.20;99.90;;;;;;5097430;28;20340;-86
2023/04/01 00:13:46;;;;;;;16.73;6.22;;;10.20;99.90;;;;;;5097277;28;20040;-87
2023/04/01 00:19:00;;;;;;;14.73;6.28;;;10.10;99.90;;;;;;5098007;28;20067;-86
2023/04/01 00:21:26;;;;;;;19.92;6.13;;;10.10;99.90;;;;;;5098337;28;20374;-86
2023/04/01 00:23:53;;;;;;;17.38;6.53;;;10.10;99.90;;;;;;5097373;28;20044;-86
2023/04/01 00:29:09;;;;;;;17.55;6.05;;;10.10;99.90;;;;;;5077281;28;20051;-88
2023/04/01 00:31:36;;;;;;;19.35;6.55;;;10.10;99.90;;;;;;5060954;28;20376;-85
2023/04/01 00:34:03;;;;;;;17.85;6.50;;;10.10;99.90;;;;;;5077398;28;20437;-84
2023/04/01 00:39:18;;;;;;;16.60;6.43;;;10.20;99.90;;;;;;5077384;28;20036;-87
2023/04/01 00:41:44;;;;;;;16.45;6.15;;;10.20;99.90;;;;;;5077104;28;20045;-88
2023/04/01 00:44:11;;;;;;;18.08;6.72;;;10.10;99.90;;;;;;5059599;28;20048;-85
2023/04/01 00:49:24;;;;;;;14.18;5.88;;;10.10;99.90;;;;;;5076173;28;20056;-85
2023/04/01 00:51:51;;;;;;;18.33;6.10;;;10.10;99.90;;;;;;5076740;28;20060;-85
2023/04/01 00:54:18;;;;;;;13.98;5.63;;;10.10;99.90;;;;;;5075748;28;20463;-87
2023/04/01 00:56:47;;;;;;;15.07;5.65;;;10.10;99.90;;;;;;5061922;28;20058;-85
2023/04/01 00:59:14;;;;;;;18.13;6.47;;;10.10;99.90;;;;;;5064039;28;20040;-85
2023/04/01 01:01:42;;;;;;;13.95;6.18;;;10.00;99.90;;;;;;5064136;28;20085;-86
2023/04/01 01:04:09;;;;;;;13.57;5.63;;;10.10;99.90;;;;;;5078954;28;20040;-89
2023/04/01 01:09:22;;;;;;;17.58;5.25;;;10.00;99.90;;;;;;5079296;28;20556;-85
2023/04/01 01:11:49;;;;;;;15.05;5.88;;;10.10;99.90;;;;;;5063792;28;20071;-88
2023/04/01 01:14:16;;;;;;;16.00;5.43;;;10.00;99.90;;;;;;5062863;28;20044;-86
2023/04/01 01:16:45;;;;;;;13.60;5.47;;;10.00;99.90;;;;;;5062334;28;20062;-88
2023/04/01 01:19:12;;;;;;;14.15;6.30;;;10.00;99.90;;;;;;5062837;28;20036;-84
2023/04/01 01:21:38;;;;;;;17.80;5.80;;;10.00;99.90;;;;;;5063249;28;20044;-86
2023/04/01 01:24:05;;;;;;;13.65;5.82;;;10.00;99.90;;;;;;5062607;28;20054;-85
2023/04/01 01:26:32;;;;;;;16.83;6.32;;;10.00;99.90;;;;;;5097878;28;20044;-87
2023/04/01 01:28:59;;;;;;;14.68;6.63;;;10.00;99.90;;;;;;5079197;28;20050;-88
2023/04/01 01:31:26;;;;;;;15.55;6.60;;;10.00;99.90;;;;;;5080600;28;20066;-88
2023/04/01 01:33:52;;;;;;;16.38;6.10;;;10.00;99.90;;;;;;5063210;28;20113;-86
2023/04/01 01:36:21;;;;;;;12.90;5.43;;;10.00;99.90;;;;;;5062362;28;20048;-88
2023/04/01 01:38:48;;;;;;;13.02;5.50;;;10.00;99.90;;;;;;5079198;28;20043;-89
2023/04/01 01:41:15;;;;;;;13.43;5.60;;;10.00;99.90;;;;;;5062491;28;20039;-84
2023/04/01 01:43:43;;;;;;;9.95;3.90;;;9.90;99.90;;;;;;5061724;28;20044;-85
2023/04/01 01:46:11;;;;;;;8.73;3.50;;;9.90;99.90;;;;;;5063270;28;20135;-85
2023/04/01 01:48:38;;;;;;;9.73;3.22;;;9.80;99.90;;;;;;5062437;28;20040;-87
2023/04/01 01:51:05;;;;;;;7.93;3.28;;;9.80;99.90;;;;;;5061699;28;20048;-86
2023/04/01 01:53:32;;;;;;;6.47;2.28;;;9.70;99.90;;;;;;5062015;28;20113;-85
2023/04/01 01:55:59;;;;;;;9.35;3.58;;;9.70;99.90;;;;;;5078340;28;20040;-86
2023/04/01 01:58:26;;;;;;;7.57;2.53;;;9.70;99.90;;;;;;5062685;28;20370;-86
2023/04/01 02:00:52;;;;;;;8.23;2.70;;;9.70;99.90;;;;;;5062651;28;20344;-85
2023/04/01 02:03:19;;;;;;;6.57;2.45;;;9.60;99.90;;;;;;5061992;28;20159;-88
2023/04/01 02:05:46;;;;;;;8.77;2.70;;;9.60;99.90;;;;;;5062805;28;20062;-88
2023/04/01 02:11:01;;;;;;;8.15;2.65;;;9.50;99.90;;;;;;5057843;28;20052;-86
2023/04/01 02:13:34;;;;;;;10.45;3.05;;;9.50;99.90;;;;;;5042896;28;20058;-86
2023/04/01 02:16:01;;;;;;;7.75;2.75;;;9.50;99.90;;;;;;5041245;28;20378;-86
2023/04/01 02:18:28;;;;;;;12.70;2.47;;;9.40;99.90;;;;;;5042712;28;20040;-86
2023/04/01 02:20:55;;;;;;;6.78;2.72;;;9.40;99.90;;;;;;5060820;28;20048;-85
2023/04/01 02:23:22;;;;;;;7.53;3.10;;;9.40;99.90;;;;;;5077918;28;20193;-87
2023/04/01 02:25:49;;;;;;;7.68;2.85;;;9.40;99.90;;;;;;5095928;28;20122;-85
2023/04/01 02:28:19;;;;;;;6.85;2.55;;;9.40;99.90;;;;;;5062298;28;20062;-85
2023/04/01 02:30:46;;;;;;;7.80;2.90;;;9.40;99.90;;;;;;5060940;28;20051;-86
2023/04/01 02:33:13;;;;;;;9.00;2.83;;;9.40;99.90;;;;;;5061277;28;20109;-87
2023/04/01 02:35:40;;;;;;;7.40;2.72;;;9.40;99.90;;;;;;5077680;28;20036;-85
2023/04/01 02:38:09;;;;;;;6.53;2.63;;;9.40;99.90;;;;;;5095856;28;20370;-86
2023/04/01 02:40:35;;;;;;;6.40;2.38;;;9.30;99.90;;;;;;5061312;28;20101;-86
2023/04/01 02:43:03;;;;;;;7.00;2.42;;;9.40;99.90;;;;;;5060481;28;20047;-85
2023/04/01 02:45:30;;;;;;;7.65;2.50;;;9.40;99.90;;;;;;5061156;28;20048;-87
2023/04/01 02:51:04;;;;;;;7.05;2.60;;;9.30;99.90;;;;;;5077150;28;20454;-85
2023/04/01 02:53:30;;;;;;;6.30;2.20;;;9.30;99.90;;;;;;5061273;28;20142;-85
2023/04/01 02:55:57;;;;;;;7.53;2.40;;;9.40;99.90;;;;;;5076834;28;20054;-85
2023/04/01 02:58:24;;;;;;;7.07;2.42;;;9.30;99.90;;;;;;5077776;28;20055;-86
2023/04/01 03:00:51;;;;;;;5.78;2.10;;;9.40;99.90;;;;;;5077276;28;20044;-87
2023/04/01 03:03:18;;;;;;;6.55;2.55;;;9.30;99.90;;;;;;5076714;28;20040;-84
2023/04/01 03:05:44;;;;;;;7.47;2.15;;;9.30;99.90;;;;;;5060716;28;20567;-85
2023/04/01 03:11:26;;;;;;;6.88;2.22;;;9.30;99.90;;;;;;5053993;28;20037;-85
2023/04/01 03:13:52;;;;;;;6.80;2.40;;;9.30;99.90;;;;;;5053734;28;20067;-87
2023/04/01 03:19:25;;;;;;;6.15;2.08;;;9.40;99.90;;;;;;5040571;28;20387;-85
2023/04/01 03:21:51;;;;;;;6.70;2.40;;;9.30;99.90;;;;;;5025067;28;20475;-85
2023/04/01 03:24:18;;;;;;;6.78;2.78;;;9.40;99.90;;;;;;5023793;28;20045;-87
2023/04/01 03:29:34;;;;;;;7.10;2.35;;;9.40;99.90;;;;;;5080597;28;20048;-88
2023/04/01 03:32:01;;;;;;;6.75;2.00;;;9.40;99.90;;;;;;5081239;28;20043;-84
2023/04/01 03:34:28;;;;;;;5.72;2.10;;;9.40;99.90;;;;;;5064234;28;20047;-85
2023/04/01 03:36:57;;;;;;;6.97;2.28;;;9.30;99.90;;;;;;5080168;28;20040;-84
2023/04/01 03:39:25;;;;;;;5.15;2.03;;;9.30;99.90;;;;;;5081180;28;20048;-86
2023/04/01 03:41:51;;;;;;;5.20;1.85;;;9.30;99.90;;;;;;5064411;28;20048;-85
2023/04/01 03:44:18;;;;;;;7.97;1.98;;;9.30;99.90;;;;;;5080268;28;20036;-85
2023/04/01 03:49:35;;;;;;;6.90;2.20;;;9.20;99.90;;;;;;5080321;28;20105;-85
2023/04/01 03:52:01;;;;;;;4.97;1.70;;;9.20;99.90;;;;;;5080739;28;20131;-88
2023/04/01 03:54:28;;;;;;;5.47;2.05;;;9.20;99.90;;;;;;5064384;28;20048;-86
2023/04/01 03:56:57;;;;;;;5.50;1.98;;;9.20;99.90;;;;;;5067676;28;20048;-84
2023/04/01 03:59:24;;;;;;;4.70;1.83;;;9.20;99.90;;;;;;5097335;28;20512;-87
2023/04/01 04:01:51;;;;;;;5.25;1.85;;;9.20;99.90;;;;;;5080631;28;20054;-86
2023/04/01 04:04:18;;;;;;;4.65;1.52;;;9.20;99.90;;;;;;5079993;28;20455;-89
2023/04/01 04:06:46;;;;;;;5.07;2.08;;;9.20;99.90;;;;;;5097813;28;20044;-87
2023/04/01 04:09:13;;;;;;;8.43;1.95;;;9.20;99.90;;;;;;5080249;28;20089;-86
2023/04/01 04:11:40;;;;;;;4.97;1.85;;;9.20;99.90;;;;;;5080579;28;20046;-88
2023/04/01 04:14:06;;;;;;;5.72;1.70;;;9.20;99.90;;;;;;5097338;28;20078;-86
2023/04/01 04:16:36;;;;;;;5.60;1.88;;;9.20;99.90;;;;;;5079792;28;20036;-86
2023/04/01 04:19:03;;;;;;;6.55;2.22;;;9.20;99.90;;;;;;5097999;28;20052;-84
2023/04/01 04:21:30;;;;;;;4.88;1.80;;;9.20;99.90;;;;;;5097352;28;20047;-88
2023/04/01 04:23:58;;;;;;;6.95;2.20;;;9.30;99.90;;;;;;5080650;28;20050;-87
2023/04/01 04:26:25;;;;;;;6.18;2.10;;;9.30;99.90;;;;;;5081522;28;20086;-85
2023/04/01 04:28:58;;;;;;;6.20;2.30;;;9.30;99.90;;;;;;5097439;28;20051;-86
2023/04/01 04:31:25;;;;;;;10.40;2.03;;;9.30;99.90;;;;;;5096448;28;20075;-87
2023/04/01 04:33:54;;;;;;;4.97;1.70;;;9.20;99.90;;;;;;5097453;28;20085;-85
2023/04/01 04:36:22;;;;;;;6.55;1.80;;;9.20;99.90;;;;;;5096638;28;20051;-85
2023/04/01 04:38:50;;;;;;;5.38;2.15;;;9.20;99.90;;;;;;5097644;28;20036;-85
2023/04/01 04:41:17;;;;;;;5.70;1.85;;;9.10;99.90;;;;;;5080043;28;20081;-87
2023/04/01 04:43:47;;;;;;;4.50;1.65;;;9.10;99.90;;;;;;5096025;28;20485;-84
2023/04/01 04:46:16;;;;;;;4.05;1.30;;;9.10;99.90;;;;;;5096511;28;20105;-84
2023/04/01 04:48:43;;;;;;;5.72;1.60;;;9.10;99.90;;;;;;5079827;28;20051;-87
2023/04/01 04:51:10;;;;;;;6.75;1.83;;;9.10;99.90;;;;;;5079326;28;20048;-87
2023/04/01 04:53:37;;;;;;;4.30;1.40;;;9.10;99.90;;;;;;5096213;28;20113;-85
2023/04/01 04:56:03;;;;;;;4.93;1.70;;;9.10;99.90;;;;;;5096271;28;20044;-86
2023/04/01 04:58:41;;;;;;;6.07;1.95;;;9.10;99.90;;;;;;5085480;28;20052;-88
2023/04/01 05:01:13;;;;;;;5.00;1.63;;;9.10;99.90;;;;;;5100244;28;20138;-87
2023/04/01 05:03:40;;;;;;;4.80;1.60;;;9.00;99.90;;;;;;5099002;28;20066;-86
2023/04/01 05:06:07;;;;;;;5.15;1.63;;;9.00;99.90;;;;;;5100792;28;20047;-85
2023/04/01 05:08:34;;;;;;;5.00;1.70;;;9.00;99.90;;;;;;5083681;28;20071;-85
2023/04/01 05:11:01;;;;;;;4.65;1.63;;;9.00;99.90;;;;;;5100541;28;20414;-86
2023/04/01 05:13:28;;;;;;;4.75;1.83;;;9.10;99.90;;;;;;5083683;28;20059;-87
2023/04/01 05:18:44;;;;;;;6.00;1.90;;;9.10;99.90;;;;;;5099552;28;20048;-88
2023/04/01 05:21:11;;;;;;;3.55;1.45;;;9.10;99.90;;;;;;5083673;28;20100;-86
2023/04/01 05:23:37;;;;;;;4.60;1.60;;;9.10;99.90;;;;;;5098432;28;20119;-85
2023/04/01 05:26:05;;;;;;;3.95;1.60;;;9.10;99.90;;;;;;5082598;28;20031;-87
2023/04/01 05:28:33;;;;;;;4.55;1.80;;;9.10;99.90;;;;;;5083216;28;20450;-87
2023/04/01 05:31:00;;;;;;;6.18;1.98;;;9.10;99.90;;;;;;5081468;28;20036;-86
2023/04/01 05:33:33;;;;;;;5.40;1.67;;;9.10;99.90;;;;;;5082986;28;20135;-85
2023/04/01 05:35:59;;;;;;;7.30;2.08;;;9.20;99.90;;;;;;5081224;28;20470;-84
2023/04/01 05:38:26;;;;;;;5.40;1.70;;;9.20;99.90;;;;;;5099050;28;20560;-85
2023/04/01 05:40:53;;;;;;;5.43;1.88;;;9.10;99.90;;;;;;5098901;28;20036;-87
2023/04/01 05:43:20;;;;;;;5.40;1.65;;;9.10;99.90;;;;;;5097869;28;20131;-86
2023/04/01 05:45:49;;;;;;;5.32;1.90;;;9.10;99.90;;;;;;5082628;28;20120;-85
2023/04/01 05:48:38;;;;;;;6.28;1.98;;;9.10;99.90;;;;;;5078408;28;20047;-87
2023/04/01 05:51:05;;;;;;;4.97;1.63;;;9.10;99.90;;;;;;5077824;28;20105;-87
2023/04/01 05:53:31;;;;;;;4.57;1.67;;;9.10;99.90;;;;;;5078394;28;20040;-87
2023/04/01 05:58:50;;;;;;;5.72;2.30;;;9.20;99.90;;;;;;5079051;28;20048;-85
2023/04/01 06:01:18;;;;;;;8.40;1.60;;;9.20;99.90;;;;;;5078412;28;20548;-85
2023/04/01 06:03:44;;;;;;;5.85;1.92;;;9.20;99.90;;;;;;5077198;28;20039;-86
2023/04/01 06:06:13;;;;;;;5.53;2.00;;;9.10;99.90;;;;;;5071398;28;20122;-82
2023/04/01 06:08:42;;;;;;;4.72;1.77;;;9.20;99.90;;;;;;5091106;28;20681;-85
2023/04/01 06:11:09;;;;;;;6.25;1.98;;;9.20;99.90;;;;;;5061928;28;20047;-86
2023/04/01 06:13:36;;;;;;;5.55;2.03;;;9.20;99.90;;;;;;5061095;28;20055;-86
2023/04/01 06:18:50;;;;;;;6.50;2.40;;;9.30;99.90;;;;;;5077551;28;20382;-86
2023/04/01 06:21:17;;;;;;;6.88;2.50;;;9.20;99.90;;;;;;5077744;28;20044;-85
2023/04/01 06:23:55;;;;;;;6.30;2.25;;;9.20;99.90;;;;;;5061836;28;20081;-86
2023/04/01 06:26:23;;;;;;;6.45;2.00;;;9.20;99.90;;;;;;5070515;28;20424;-85
2023/04/01 06:28:50;;;;;;;8.65;2.20;;;9.20;99.90;;;;;;5097674;28;20044;-85
2023/04/01 06:31:17;;;;;;;6.35;2.10;;;9.20;99.90;;;;;;5097890;28;20454;-86
2023/04/01 06:33:44;;;;;;;7.25;2.30;;;9.30;99.90;;;;;;5097729;28;20545;-85
2023/04/01 06:38:59;;;;;;;5.40;2.10;;;9.20;99.90;;;;;;5097800;28;20139;-85
2023/04/01 06:41:26;;;;;;;5.72;1.92;;;9.10;99.90;;;;;;5097932;28;20055;-86
2023/04/01 06:43:53;;;;;;;4.93;1.83;;;9.10;99.90;;;;;;5096833;28;20040;-86
2023/04/01 06:49:56;;;;;;;5.72;1.90;;;9.10;99.90;;;;;;5094271;28;20079;-85
2023/04/01 06:52:41;;;;;;;7.03;2.33;;;9.00;99.90;;;;;;5079614;28;20482;-85
2023/04/01 06:55:35;;;;;;;7.18;2.45;;;9.10;99.90;;;;;;5063284;28;20463;-84
2023/04/01 06:58:22;;;;;;;7.55;2.17;;;9.00;99.90;;;;;;5073300;28;20058;-86
2023/04/01 07:00:50;;;;;;;7.45;2.25;;;8.90;99.90;;;;;;5073872;28;20037;-84
2023/04/01 07:03:16;;;;;;;7.10;2.20;;;9.00;99.90;;;;;;5056265;28;20045;-86
2023/04/01 07:05:43;;;;;;;6.68;2.35;;;9.00;99.90;;;;;;5073700;28;20044;-84
2023/04/01 07:10:42;;;;;;;7.90;2.50;;;9.10;99.90;;;;;;5072917;28;20040;-84
2023/04/01 07:13:27;;;;;;;12.55;2.63;;;9.10;99.90;;;;;;5073725;28;20094;-84
2023/04/01 07:15:59;;;;;;;9.88;3.00;;;9.10;99.90;;;;;;5073315;28;20528;-83
2023/04/01 07:18:28;;;;;;;7.45;2.10;;;9.20;99.90;;;;;;5073566;28;20047;-84
2023/04/01 07:20:55;;;;;;;7.13;2.40;;;9.20;99.90;;;;;;5074400;28;20036;-84
2023/04/01 07:23:22;;;;;;;9.23;3.10;;;9.30;99.90;;;;;;5056196;28;20044;-84
2023/04/01 07:25:59;;;;;;;7.80;2.55;;;9.30;99.90;;;;;;5064809;28;20466;-85
2023/04/01 07:28:45;;;;;;;7.85;2.50;;;9.30;99.90;;;;;;5093240;28;20109;-84
2023/04/01 07:31:22;;;;;;;7.35;2.97;;;9.40;99.90;;;;;;5093762;28;20036;-85
2023/04/01 07:33:49;;;;;;;9.73;2.92;;;9.40;99.90;;;;;;5093460;28;20047;-85
2023/04/01 07:36:17;;;;;;;8.85;2.60;;;9.40;99.90;;;;;;5093082;28;20119;-85
2023/04/01 07:38:44;;;;;;;7.03;2.22;;;9.50;99.90;;;;;;5093893;28;20040;-84
2023/04/01 07:41:12;;;;;;;7.55;2.47;;;9.40;99.90;;;;;;5077699;28;20040;-85
2023/04/01 07:43:40;;;;;;;9.55;2.67;;;9.40;99.90;;;;;;5092915;28;20042;-84
2023/04/01 07:49:36;;;;;;;10.45;2.53;;;9.40;99.90;;;;;;5092637;28;20412;-85
2023/04/01 07:52:03;;;;;;;7.35;2.33;;;9.40;99.90;;;;;;5093932;28;20493;-85
2023/04/01 07:54:32;;;;;;;7.43;2.38;;;9.30;99.90;;;;;;5093454;28;20051;-86
2023/04/01 07:57:03;;;;;;;7.85;3.00;;;9.30;99.90;;;;;;5095538;28;20155;-87
2023/04/01 07:59:42;;;;;;;8.68;2.95;;;9.40;99.90;;;;;;5059143;28;20131;-85
2023/04/01 08:02:18;;;;;;;9.90;3.03;;;9.40;99.90;;;;;;5056665;28;20086;-86
2023/04/01 08:04:45;;;;;;;8.65;2.40;;;9.40;99.90;;;;;;5042357;28;20051;-85
2023/04/01 08:10:11;;;;;;;7.65;2.80;;;9.40;99.90;;;;;;5058938;28;20053;-84
2023/04/01 08:12:57;;;;;;;6.63;2.33;;;9.40;99.90;;;;;;5049938;28;20064;-84
2023/04/01 08:15:42;;;;;;;9.25;2.47;;;9.40;99.90;;;;;;5076368;28;20051;-84
2023/04/01 08:21:49;;;;;;;10.48;3.90;;;9.40;99.90;;;;;;5076763;28;20081;-85
2023/04/01 08:24:23;;;;;;;9.98;3.60;;;9.30;99.90;;;;;;5058017;28;20064;-84
2023/04/01 08:26:59;;;;;;;11.68;3.90;;;9.30;99.90;;;;;;5046379;28;20463;-85
2023/04/01 08:29:46;;;;;;;11.38;3.78;;;9.40;99.90;;;;;;5058225;28;20047;-85
2023/04/01 08:32:20;;;;;;;10.57;3.92;;;9.50;99.90;;;;;;5059501;28;20052;-85
2023/04/01 08:34:50;;;;;;;12.35;3.45;;;9.60;99.90;;;;;;5075158;28;20063;-85
2023/04/01 08:40:33;;;;;;;10.18;3.60;;;9.70;99.90;;;;;;5058428;28;20502;-85
2023/04/01 08:46:40;;;;;;;9.02;3.25;;;9.70;99.90;;;;;;5015270;28;20123;-85
2023/04/01 08:49:07;;;;;;;9.07;2.97;;;9.60;99.90;;;;;;4998087;28;20484;-84
2023/04/01 08:51:34;;;;;;;9.75;3.53;;;9.70;99.90;;;;;;5014058;28;20034;-85
2023/04/01 08:54:01;;;;;;;9.02;2.90;;;9.70;99.90;;;;;;4998722;28;20042;-88
2023/04/01 08:59:53;;;;;;;12.23;3.60;;;9.70;99.90;;;;;;4997974;28;20096;-86
2023/04/01 09:02:38;;;;;;;8.32;2.67;;;9.70;99.90;;;;;;5014780;28;20610;-88
2023/04/01 09:05:16;;;;;;;10.00;3.30;;;9.80;99.90;;;;;;4998961;28;20038;-86
2023/04/01 09:13:56;;;;;;;9.73;3.33;;;10.00;99.90;;;;;;5015137;28;20046;-88
2023/04/01 09:20:08;;;;;;;9.18;3.38;;;10.00;99.90;;;;;;4976273;28;20116;-89
2023/04/01 09:22:50;;;;;;;9.73;3.33;;;10.00;99.90;;;;;;4985629;28;20038;-89
2023/04/01 09:39:33;;;;;;;9.07;2.72;;;10.20;99.90;;;;;;4963647;28;20061;-87
2023/04/01 09:42:07;;;;;;;8.15;2.60;;;10.20;99.90;;;;;;4978866;28;20058;-85
2023/04/01 09:44:55;;;;;;;;;;;10.20;99.90;;;;;;4979322;28;20069;-87
2023/04/01 09:50:36;;;;;;;10.05;2.90;;;10.20;99.90;;;;;;4994488;28;20034;-85
2023/04/01 09:53:37;;;;;;;6.18;2.30;;;10.30;99.90;;;;;;5012199;28;20087;-87
2023/04/01 09:59:34;;;;;;;7.47;2.97;;;10.20;99.90;;;;;;5079529;28;20585;-89
2023/04/01 10:02:20;;;;;;;9.63;2.90;;;10.20;99.90;;;;;;5060767;28;20190;-89
2023/04/01 10:04:48;;;;;;;8.27;3.00;;;10.20;99.90;;;;;;5058056;28;20510;-88
2023/04/01 10:09:45;;;;;;;8.48;2.40;;;10.20;99.90;;;;;;5057905;28;20044;-88
2023/04/01 10:12:12;;;;;;;8.75;2.92;;;10.20;99.90;;;;;;5057681;28;20052;-87
2023/04/01 10:14:39;;;;;;;12.38;3.85;;;10.20;99.90;;;;;;5058030;28;20052;-88
2023/04/01 10:17:07;;;;;;;7.72;3.03;;;10.30;99.90;;;;;;5057942;28;20055;-87
2023/04/01 10:19:34;;;;;;;10.00;2.80;;;10.20;99.90;;;;;;5058546;28;20509;-88
2023/04/01 10:22:01;;;;;;;8.15;2.78;;;10.20;99.90;;;;;;5058299;28;20045;-87
2023/04/01 10:24:30;;;;;;;13.45;2.95;;;10.30;99.90;;;;;;5057173;28;20048;-88
2023/04/01 10:33:25;;;;;;;5.90;2.35;;;10.60;99.90;;;;;;4973822;28;20142;-86
2023/04/01 10:35:57;;;;;;;7.50;2.42;;;10.80;99.90;;;;;;4970060;28;20085;-86
2023/04/01 10:38:24;;;;;;;6.30;2.10;;;10.90;99.90;;;;;;4987606;28;20039;-87
2023/04/01 10:41:15;;;;;;;6.90;2.10;;;10.90;99.90;;;;;;4935860;28;20501;-86
2023/04/01 10:44:13;;;;;;;5.47;2.10;;;10.80;99.90;;;;;;5054584;28;20049;-86
2023/04/01 10:46:40;;;;;;;5.15;2.08;;;10.80;99.90;;;;;;5039666;28;20045;-85
2023/04/01 10:49:08;;;;;;;9.10;2.20;;;10.80;99.90;;;;;;5054924;28;20074;-87
2023/04/01 10:51:37;;;;;;;6.63;2.30;;;10.80;99.90;;;;;;5056497;28;20055;-85
2023/04/01 10:54:06;;;;;;;7.18;2.40;;;10.70;99.90;;;;;;5056839;28;20132;-86
2023/04/01 11:00:10;;;;;;;7.30;2.53;;;11.00;99.90;;;;;;5092591;28;20332;-87
2023/04/01 11:02:56;;;;;;;10.20;2.50;;;11.20;99.90;;;;;;5078398;28;20062;-86
2023/04/01 11:05:42;;;;;;;6.20;2.28;;;11.30;99.90;;;;;;5094774;28;20169;-87
2023/04/01 11:14:34;;;;;;;11.40;2.78;;;11.40;99.90;;;;;;5074328;28;20109;-88
2023/04/01 11:17:12;;;;;;;8.32;2.80;;;11.30;99.90;;;;;;5056271;28;20036;-87
2023/04/01 11:19:47;;;;;;;7.85;2.95;;;11.30;99.90;;;;;;5074583;28;20036;-89
2023/04/01 11:22:19;;;;;;;10.93;2.90;;;11.30;99.90;;;;;;5055472;28;20068;-86
2023/04/01 11:24:50;;;;;;;7.20;3.13;;;11.20;99.90;;;;;;5057745;28;20041;-90
2023/04/01 11:27:37;;;;;;;10.50;2.70;;;11.00;99.90;;;;;;5043163;28;20049;-86
2023/04/01 11:30:05;;;;;;;10.65;3.35;;;10.80;99.90;;;;;;5056154;28;20045;-87
2023/04/01 11:32:33;;;;;;;11.10;3.28;;;10.70;99.90;;;;;;5056524;28;20064;-86
2023/04/01 11:35:00;;;;;;;10.95;3.83;;;10.70;99.90;;;;;;5056895;28;20044;-85
2023/04/01 11:37:29;;;;;;;8.90;3.58;;;10.70;99.90;;;;;;5038777;28;20032;-87
2023/04/01 11:40:31;;;;;;;11.45;3.55;;;10.80;99.90;;;;;;5076842;28;20040;-87
2023/04/01 11:43:18;;;;;;;10.73;3.80;;;10.70;99.90;;;;;;5063919;28;20098;-85
2023/04/01 11:46:19;;;;;;;15.07;3.70;;;10.80;99.90;;;;;;5065503;28;20130;-88
2023/04/01 11:48:47;;;;;;;10.73;3.45;;;11.00;99.90;;;;;;5060038;28;20082;-85
2023/04/01 11:51:13;;;;;;;9.65;3.30;;;11.10;99.90;;;;;;5043914;28;20475;-89
2023/04/01 11:53:40;;;;;;;9.02;3.30;;;11.20;99.90;;;;;;5059223;28;20110;-88
2023/04/01 11:56:10;;;;;;;11.50;3.58;;;11.20;99.90;;;;;;5059402;28;20181;-86
2023/04/01 11:58:46;;;;;;;11.02;4.00;;;11.20;99.90;;;;;;5077161;28;20052;-86
2023/04/01 12:01:12;;;;;;;9.93;3.47;;;11.20;99.90;;;;;;5060305;28;20474;-88
2023/04/01 12:03:39;;;;;;;10.85;4.15;;;11.20;99.90;;;;;;5059751;28;20041;-86
2023/04/01 12:06:06;;;;;;;13.38;3.40;;;11.20;99.90;;;;;;5073708;28;20050;-86
2023/04/01 12:08:33;;;;;;;11.10;3.47;;;11.20;99.90;;;;;;5062379;28;20116;-87
2023/04/01 12:14:03;;;;;;;12.10;3.65;;;11.50;99.90;;;;;;5024672;28;20047;-86
2023/04/01 12:16:31;;;;;;;15.27;3.45;;;11.60;99.90;;;;;;5061736;28;20449;-85
2023/04/01 12:19:07;;;;;;;12.43;3.88;;;11.60;99.90;;;;;;5062208;28;20048;-86
2023/04/01 12:21:54;;;;;;;10.27;3.45;;;11.60;99.90;;;;;;5064794;28;20040;-87
2023/04/01 12:24:43;;;;;;;11.68;3.72;;;11.70;99.90;;;;;;5061637;28;20151;-86
2023/04/01 12:27:33;;;;;;;12.93;3.35;;;11.80;99.90;;;;;;5058829;28;20139;-86
2023/04/01 12:30:02;;;;;;;9.50;3.15;;;12.10;99.90;;;;;;5078144;28;20052;-87
2023/04/01 12:32:29;;;;;;;9.55;3.15;;;12.10;99.90;;;;;;5079284;28;20360;-87
2023/04/01 12:38:45;;;;;;;10.05;3.80;;;11.90;99.90;;;;;;5084477;28;20050;-87
2023/04/01 12:41:12;;;;;;;13.30;3.70;;;11.70;99.90;;;;;;5097407;28;20089;-87
2023/04/01 12:43:48;;;;;;;9.82;2.97;;;11.40;99.90;;;;;;5095876;28;20186;-86
2023/04/01 12:49:43;;;;;;;11.30;2.38;;;11.50;99.90;;;;;;5096365;28;20078;-86
2023/04/01 12:53:02;;;;;;;10.35;2.78;;;11.60;99.90;;;;;;5005165;28;20037;-86
2023/04/01 12:55:49;;;;;;;10.02;2.75;;;11.70;99.90;;;;;;5013483;28;20046;-86
2023/04/01 13:18:55;;;;;;;6.53;2.10;;;12.30;99.90;;;;;;4948333;28;20377;-86
2023/04/01 13:25:28;;;;;;;6.88;1.92;;;12.20;99.90;;;;;;4965062;28;20129;-85
2023/04/01 14:00:12;;;;;;;9.73;2.50;;;13.00;99.90;;;;;;4917698;29;20090;-86
2023/04/01 14:16:44;;;;;;;7.25;2.30;;;12.30;99.90;;;;;;4992914;28;20034;-85
2023/04/01 14:19:11;;;;;;;9.88;2.05;;;12.30;99.90;;;;;;4977376;28;20050;-87
2023/04/01 14:21:43;;;;;;;5.68;1.92;;;12.20;99.90;;;;;;4977096;28;20034;-84
2023/04/01 14:24:12;;;;;;;6.43;2.05;;;12.10;99.90;;;;;;4990387;28;20059;-84
2023/04/01 14:26:57;;;;;;;9.50;2.22;;;12.00;99.90;;;;;;4990428;28;20046;-85
2023/04/01 14:29:55;;;;;;;7.40;1.70;;;12.20;99.90;;;;;;4954838;28;20074;-88
2023/04/01 14:36:03;;;;;;;5.53;1.80;;;12.50;99.90;;;;;;4965131;28;20106;-84
2023/04/01 14:38:54;;;;;;;7.45;2.03;;;12.70;99.90;;;;;;4954231;28;20082;-87
2023/04/01 14:41:22;;;;;;;6.57;1.63;;;12.60;99.90;;;;;;4956260;28;20078;-88
2023/04/01 14:43:50;;;;;;;5.35;1.80;;;12.50;99.90;;;;;;5022124;28;20056;-86
2023/04/01 14:46:17;;;;;;;5.97;1.80;;;12.30;99.90;;;;;;5035733;28;20029;-85
2023/04/01 14:48:44;;;;;;;5.63;1.70;;;12.20;99.90;;;;;;5018208;28;20049;-87
2023/04/01 14:51:11;;;;;;;3.17;1.50;;;12.40;99.90;;;;;;5034442;28;20471;-87
2023/04/01 14:53:38;;;;;;;9.57;2.03;;;12.20;99.90;;;;;;5018677;28;20049;-88
2023/04/01 14:56:06;;;;;;;7.03;2.65;;;12.20;99.90;;;;;;5034406;28;20044;-87
2023/04/01 14:58:32;;;;;;;7.18;1.83;;;12.10;99.90;;;;;;5018173;28;20048;-86
2023/04/01 15:00:59;;;;;;;7.55;2.20;;;12.00;99.90;;;;;;5049106;28;20072;-87
2023/04/01 15:03:26;;;;;;;8.20;2.45;;;12.00;99.90;;;;;;5050278;28;20045;-86
2023/04/01 15:05:56;;;;;;;5.82;2.30;;;11.90;99.90;;;;;;5051220;28;20453;-88
2023/04/01 15:08:23;;;;;;;9.20;2.60;;;11.80;99.90;;;;;;5066207;28;20044;-87
2023/04/01 15:10:50;;;;;;;8.77;2.97;;;11.90;99.90;;;;;;5062310;28;20044;-84
2023/04/01 15:13:16;;;;;;;8.77;2.90;;;11.90;99.90;;;;;;5053731;28;20489;-88
2023/04/01 15:15:43;;;;;;;9.35;3.00;;;12.00;99.90;;;;;;5068838;28;20060;-89
2023/04/01 15:18:11;;;;;;;6.93;2.45;;;11.90;99.90;;;;;;5069897;28;20049;-90
2023/04/01 15:20:43;;;;;;;7.75;2.75;;;11.80;99.90;;;;;;5042383;28;20048;-88
2023/04/01 15:27:02;;;;;;;9.07;2.53;;;11.90;99.90;;;;;;4918399;29;20064;-86
2023/04/01 15:29:29;;;;;;;6.68;2.45;;;11.90;99.90;;;;;;4916797;29;20052;-86
2023/04/01 15:32:00;;;;;;;8.45;2.78;;;11.80;99.90;;;;;;4977903;28;20064;-87
2023/04/01 15:34:27;;;;;;;6.78;2.53;;;11.70;99.90;;;;;;4981214;28;20149;-87
2023/04/01 15:37:48;;;;;;;16.25;2.88;;;11.60;99.90;;;;;;5012379;28;20041;-87
2023/04/01 15:40:08;;;;;;;8.05;2.42;;;11.50;99.90;;;;;;5010766;28;20057;-87
2023/04/01 15:43:28;;;;;;;8.00;2.45;;;11.50;99.90;;;;;;4914881;29;20395;-87
2023/04/01 15:52:53;;;;;;;11.23;2.67;;;11.40;99.90;;;;;;4914181;29;20047;-88
2023/04/01 15:55:23;;;;;;;9.38;2.80;;;11.30;99.90;;;;;;4920092;29;20432;-86
2023/04/01 16:01:00;;;;;;;12.70;2.90;;;11.00;99.90;;;;;;4894832;29;20064;-87
2023/04/01 16:10:33;;;;;;;8.43;2.60;;;10.90;99.90;;;;;;4977253;28;20058;-88
2023/04/01 16:13:19;;;;;;;8.13;3.10;;;10.90;99.90;;;;;;4987374;28;20061;-89
2023/04/01 16:15:52;;;;;;;8.43;3.15;;;10.80;99.90;;;;;;4993510;28;20058;-88
2023/04/01 16:18:48;;;;;;;;;;;;;;;;;;;;;
2023/04/01 16:25:02;;;;;;;11.77;2.85;;;10.80;99.90;;;;;;5057375;28;20075;-86
2023/04/01 16:30:10;;;;;;;9.77;3.25;;;10.70;99.90;;;;;;5077154;28;20048;-87
2023/04/01 16:32:37;;;;;;;8.20;3.10;;;10.70;99.90;;;;;;5060570;28;20041;-87
2023/04/01 16:35:04;;;;;;;7.63;2.28;;;10.70;99.90;;;;;;5060127;28;20045;-86
2023/04/01 16:37:32;;;;;;;11.50;3.25;;;10.50;99.90;;;;;;5059274;28;20044;-86
2023/04/01 16:40:01;;;;;;;7.32;3.30;;;10.40;99.90;;;;;;5051532;28;20127;-86
2023/04/01 16:42:28;;;;;;;8.70;3.08;;;10.50;99.90;;;;;;5064673;28;20095;-85
2023/04/01 16:44:55;;;;;;;6.13;2.28;;;10.40;99.90;;;;;;5076068;28;20036;-86
2023/04/01 16:47:24;;;;;;;9.20;3.83;;;10.40;99.90;;;;;;5069521;28;20135;-86
2023/04/01 16:49:52;;;;;;;8.43;3.42;;;10.40;99.90;;;;;;5058550;28;20048;-86
2023/04/01 16:52:18;;;;;;;10.32;2.80;;;10.30;99.90;;;;;;5059529;28;20055;-88
2023/04/01 16:54:45;;;;;;;11.38;3.33;;;10.30;99.90;;;;;;5058726;28;20059;-86
2023/04/01 16:57:15;;;;;;;8.88;3.40;;;10.30;99.90;;;;;;5057829;28;20050;-84
2023/04/01 16:59:42;;;;;;;6.85;2.85;;;10.30;99.90;;;;;;5076232;28;20044;-85